Moody, Missouri
Current Conditions -  °F | °C
As of 12:53 PM on Friday 28 Nov 2014 (Local Time) from KUNO Reporting Station
Clear Clear  
Wind Chill: 51°   Ceiling: Unl
Heat Index: 51°   Visibility: 10mi
Dew Point: 31°   Wind: 16mph
Humidity: 46%   Direction: 190°S
Pressure: 30.08"   Gusts: 21mph
Location:  36.53°N, 91.99°W
Report Text: KUNO 281853Z AUTO 19014G18KT 10SM CLR 11/M01 A3008 RMK AO2 SLP189 T01061006
Loading
Personal Weather Stations






























Interactive Weather Map New forecast layout! Learn more

10-Day Weather Forecast

Advertisements
Track Severe Weather on mobile